Time;durP1;ratioP1;P1;durP2;ratioP2;P2;SDS_P1;SDS_P2;PMS_P1;PMS_P2;Temp;Humidity;BMP_temperature;BMP_pressure;BME280_temperature;BME280_humidity;BME280_pressure;Samples;Min_cycle;Max_cycle;Signal;HPM_P1;HPM_P2
2021/01/28 05:19:12;;;;;;;;;;;5.10;99.90;;;;;;4997024;28;19968;-78
2021/01/28 05:21:49;;;;;;;;;;;6.50;99.90;;;;;;5002872;28;19910;-79
2021/01/28 05:45:10;;;;;;;;;;;6.30;99.90;;;;;;5401065;23;19932;-80
2021/01/28 05:47:37;;;;;;;;;;;3.70;99.90;;;;;;5039716;28;19945;-79
2021/01/28 05:50:14;;;;;;;;;;;6.60;99.90;;;;;;5040291;28;19926;-79
2021/01/28 05:52:41;;;;;;;;;;;6.60;99.90;;;;;;5040931;28;19910;-80
2021/01/28 06:06:31;;;;;;;;;;;6.30;99.90;;;;;;4977483;29;19927;-80
2021/01/28 06:09:16;;;;;;;;;;;6.40;99.90;;;;;;4976362;28;19926;-81
2021/01/28 06:19:56;;;;;;;;;;;6.30;99.90;;;;;;5909249;23;19930;-80
2021/01/28 06:41:54;;;;;;;;;;;9.40;99.90;;;;;;5026106;28;19929;-76
2021/01/28 06:44:21;;;;;;;;;;;6.30;99.90;;;;;;5017327;28;19936;-75
2021/01/28 06:46:48;;;;;;;;;;;6.40;99.90;;;;;;5017467;28;19926;-76
2021/01/28 06:49:17;;;;;;;;;;;6.40;99.90;;;;;;5017435;28;19925;-76
2021/01/28 06:51:46;;;;;;;;;;;6.40;99.90;;;;;;5017030;28;19925;-76
2021/01/28 06:54:12;;;;;;;;;;;6.40;99.90;;;;;;5017089;28;19926;-76
2021/01/28 06:56:41;;;;;;;;;;;6.40;99.90;;;;;;5015907;28;19931;-76
2021/01/28 06:59:10;;;;;;;;;;;6.40;99.90;;;;;;5016446;28;20142;-76
2021/01/28 07:01:39;;;;;;;;;;;6.30;99.90;;;;;;5017165;28;19936;-76
2021/01/28 07:04:09;;;;;;;;;;;6.40;99.90;;;;;;5016838;28;20305;-76
2021/01/28 07:06:37;;;;;;;;;;;6.30;99.90;;;;;;5016676;28;19925;-76
2021/01/28 07:09:08;;;;;;;;;;;6.30;99.90;;;;;;5016671;28;19987;-76
2021/01/28 07:11:35;;;;;;;;;;;6.30;99.90;;;;;;5016572;28;20020;-76
2021/01/28 07:14:02;;;;;;;;;;;6.30;99.90;;;;;;5016480;28;20009;-75
2021/01/28 07:16:31;;;;;;;;;;;6.30;99.90;;;;;;5016327;28;19936;-76
2021/01/28 07:19:00;;;;;;;;;;;6.30;99.90;;;;;;5016592;28;19925;-76
2021/01/28 07:21:30;;;;;;;;;;;6.30;99.90;;;;;;5016794;28;20254;-76
2021/01/28 07:24:00;;;;;;;;;;;6.30;99.90;;;;;;5016968;28;19925;-76
2021/01/28 07:26:27;;;;;;;;;;;6.30;99.90;;;;;;5016557;28;19936;-76
2021/01/28 07:28:53;;;;;;;;;;;6.20;99.90;;;;;;5015647;28;20338;-76
2021/01/28 07:31:24;;;;;;;;;;;6.20;99.90;;;;;;5016574;28;19925;-76
2021/01/28 07:34:04;;;;;;;;;;;6.20;99.90;;;;;;5016428;28;19925;-76
2021/01/28 07:36:38;;;;;;;;;;;6.20;99.90;;;;;;5016475;28;19940;-76
2021/01/28 07:39:05;;;;;;;;;;;6.20;99.90;;;;;;5016002;28;19929;-76
2021/01/28 07:41:33;;;;;;;;;;;6.20;99.90;;;;;;5016407;28;20035;-76
2021/01/28 07:44:18;;;;;;;;;;;6.20;99.90;;;;;;5016524;28;19936;-76
2021/01/28 07:46:44;;;;;;;;;;;6.20;99.90;;;;;;5016332;28;19926;-76
2021/01/28 07:49:13;;;;;;;;;;;6.20;99.90;;;;;;5016611;28;19929;-76
2021/01/28 07:51:40;;;;;;;;;;;6.20;99.90;;;;;;5016225;28;19936;-76
2021/01/28 07:54:26;;;;;;;;;;;6.20;99.90;;;;;;5016249;28;19935;-76
2021/01/28 07:56:53;;;;;;;;;;;6.10;99.90;;;;;;5015727;28;20235;-76
2021/01/28 07:59:23;;;;;;;;;;;6.10;99.90;;;;;;5015879;28;19925;-76
2021/01/28 08:01:50;;;;;;;;;;;6.10;99.90;;;;;;5016067;28;19948;-76
2021/01/28 08:04:26;;;;;;;;;;;6.10;99.90;;;;;;5016255;28;19925;-76
2021/01/28 08:06:52;;;;;;;;;;;6.10;99.90;;;;;;5015761;28;19951;-76
2021/01/28 08:09:19;;;;;;;;;;;6.10;99.90;;;;;;5015648;28;19933;-76
2021/01/28 08:11:47;;;;;;;;;;;6.10;99.90;;;;;;5015770;28;19926;-76
2021/01/28 08:14:13;;;;;;;;;;;6.10;99.90;;;;;;5015901;28;19935;-77
2021/01/28 08:16:40;;;;;;;;;;;6.10;99.90;;;;;;5015585;28;19925;-77
2021/01/28 08:19:07;;;;;;;;;;;6.10;99.90;;;;;;5015547;28;19925;-77
2021/01/28 08:21:34;;;;;;;;;;;6.10;99.90;;;;;;5015602;28;19929;-77
2021/01/28 08:24:10;;;;;;;;;;;6.10;99.90;;;;;;5015791;28;19936;-77
2021/01/28 08:26:38;;;;;;;;;;;6.10;99.90;;;;;;5015469;28;19926;-77
2021/01/28 08:29:05;;;;;;;;;;;6.10;99.90;;;;;;5014993;28;20087;-77
2021/01/28 08:31:32;;;;;;;;;;;6.10;99.90;;;;;;5015812;28;19948;-77
2021/01/28 08:33:59;;;;;;;;;;;6.10;99.90;;;;;;5015721;28;19926;-77
2021/01/28 08:36:27;;;;;;;;;;;6.20;99.90;;;;;;5015829;28;19925;-77
2021/01/28 08:39:03;;;;;;;;;;;6.10;99.90;;;;;;5015823;28;19952;-77
2021/01/28 08:41:30;;;;;;;;;;;6.10;99.90;;;;;;5015855;28;19931;-77
2021/01/28 08:44:00;;;;;;;;;;;6.20;99.90;;;;;;5015532;28;19988;-77
2021/01/28 08:46:26;;;;;;;;;;;6.20;99.90;;;;;;5015409;28;19925;-77
2021/01/28 08:49:01;;;;;;;;;;;6.20;99.90;;;;;;5015425;28;19925;-77
2021/01/28 08:51:27;;;;;;;;;;;6.20;99.90;;;;;;5015456;28;19932;-77
2021/01/28 08:53:58;;;;;;;;;;;6.10;99.90;;;;;;5015530;28;19937;-77
2021/01/28 08:56:26;;;;;;;;;;;6.10;99.90;;;;;;5015407;28;19983;-77
2021/01/28 08:58:52;;;;;;;;;;;6.20;99.90;;;;;;5015243;28;19925;-77
2021/01/28 09:01:19;;;;;;;;;;;6.20;99.90;;;;;;5015435;28;19929;-77
2021/01/28 09:03:49;;;;;;;;;;;6.20;99.90;;;;;;5015821;28;19925;-78
2021/01/28 09:06:15;;;;;;;;;;;6.20;99.90;;;;;;5015635;28;19932;-78
2021/01/28 09:08:42;;;;;;;;;;;6.20;99.90;;;;;;5015778;28;20040;-78
2021/01/28 09:11:09;;;;;;;;;;;6.20;99.90;;;;;;5015806;28;19943;-78
2021/01/28 09:13:36;;;;;;;;;;;6.20;99.90;;;;;;5015669;28;19936;-77
2021/01/28 09:16:07;;;;;;;;;;;6.20;99.90;;;;;;5015781;28;19939;-78
2021/01/28 09:18:33;;;;;;;;;;;6.20;99.90;;;;;;5016099;28;20008;-77
2021/01/28 09:21:04;;;;;;;;;;;6.20;99.90;;;;;;5015112;28;19936;-77
2021/01/28 09:23:31;;;;;;;;;;;6.20;99.90;;;;;;5015406;28;19997;-77
2021/01/28 09:26:08;;;;;;;;;;;6.20;99.90;;;;;;5015446;28;19926;-77
2021/01/28 09:28:34;;;;;;;;;;;6.20;99.90;;;;;;5014891;28;20301;-77
2021/01/28 09:31:01;;;;;;;;;;;6.20;99.90;;;;;;5014955;28;19976;-77
2021/01/28 09:33:28;;;;;;;;;;;6.30;99.90;;;;;;5013007;28;19925;-77
2021/01/28 09:35:59;;;;;;;;;;;6.30;99.90;;;;;;5014997;28;19929;-77
2021/01/28 09:38:26;;;;;;;;;;;6.30;99.90;;;;;;5014914;28;20354;-77
2021/01/28 09:40:54;;;;;;;;;;;6.30;99.90;;;;;;5016995;28;19929;-78
2021/01/28 09:43:24;;;;;;;;;;;6.30;99.90;;;;;;5017391;28;19995;-77
2021/01/28 09:46:05;;;;;;;;;;;6.30;99.90;;;;;;5019074;28;19925;-78
2021/01/28 09:48:31;;;;;;;;;;;6.30;99.90;;;;;;5019276;28;19945;-78
2021/01/28 09:50:58;;;;;;;;;;;6.30;99.90;;;;;;5019425;28;19935;-78
2021/01/28 09:53:24;;;;;;;;;;;6.30;99.90;;;;;;5019249;28;19925;-78
2021/01/28 09:55:51;;;;;;;;;;;6.30;99.90;;;;;;5020240;28;20366;-78
2021/01/28 09:58:18;;;;;;;;;;;6.40;99.90;;;;;;5019752;28;19935;-78
2021/01/28 10:00:44;;;;;;;;;;;6.40;99.90;;;;;;5019800;28;19948;-78
2021/01/28 10:03:11;;;;;;;;;;;6.40;99.90;;;;;;5019876;28;19925;-78
2021/01/28 10:05:38;;;;;;;;;;;6.40;99.90;;;;;;5018648;28;19948;-77
2021/01/28 10:08:04;;;;;;;;;;;6.40;99.90;;;;;;5018868;28;19926;-78
2021/01/28 10:10:31;;;;;;;;;;;6.40;99.90;;;;;;5018886;28;19936;-78
2021/01/28 10:12:58;;;;;;;;;;;6.40;99.90;;;;;;5018946;28;20227;-78
2021/01/28 10:15:24;;;;;;;;;;;6.40;99.90;;;;;;5019260;28;19933;-78
2021/01/28 10:17:51;;;;;;;;;;;6.40;99.90;;;;;;5018936;28;19926;-78
2021/01/28 10:20:18;;;;;;;;;;;6.40;99.90;;;;;;5018857;28;19926;-78
2021/01/28 10:22:44;;;;;;;;;;;6.50;99.90;;;;;;5018807;28;20262;-78
2021/01/28 10:25:11;;;;;;;;;;;6.50;99.90;;;;;;5019996;28;20366;-78
2021/01/28 10:27:38;;;;;;;;;;;6.50;99.90;;;;;;5034727;28;19925;-80
2021/01/28 10:30:04;;;;;;;;;;;6.60;99.90;;;;;;5022309;28;20247;-78
2021/01/28 10:32:31;;;;;;;;;;;6.50;99.90;;;;;;5020387;28;19925;-78
2021/01/28 10:34:58;;;;;;;;;;;6.50;99.90;;;;;;5020077;28;19936;-78
2021/01/28 10:37:25;;;;;;;;;;;6.50;99.90;;;;;;5019916;28;19926;-78
2021/01/28 10:39:51;;;;;;;;;;;6.50;99.90;;;;;;5019081;28;20335;-78
2021/01/28 10:42:18;;;;;;;;;;;6.60;99.90;;;;;;5018667;28;19925;-78
2021/01/28 10:44:44;;;;;;;;;;;6.60;99.90;;;;;;5019384;28;19937;-78
2021/01/28 10:47:10;;;;;;;;;;;6.60;99.90;;;;;;5019429;28;19926;-78
2021/01/28 10:49:37;;;;;;;;;;;6.60;99.90;;;;;;5019545;28;19925;-79
2021/01/28 10:52:03;;;;;;;;;;;6.60;99.90;;;;;;5022282;28;19940;-79
2021/01/28 10:54:31;;;;;;;;;;;6.60;99.90;;;;;;5022072;28;19933;-80
2021/01/28 10:56:57;;;;;;;;;;;6.70;99.90;;;;;;5021957;28;19932;-80
2021/01/28 10:59:23;;;;;;;;;;;6.60;99.90;;;;;;5021871;28;19983;-81
2021/01/28 11:01:50;;;;;;;;;;;6.70;99.90;;;;;;5019623;28;19933;-80
2021/01/28 11:04:16;;;;;;;;;;;6.70;99.90;;;;;;5019760;28;19932;-81
2021/01/28 11:06:43;;;;;;;;;;;6.80;99.90;;;;;;5020888;28;19983;-81
2021/01/28 11:09:09;;;;;;;;;;;6.80;99.90;;;;;;5017832;28;19926;-81
2021/01/28 11:11:37;;;;;;;;;;;6.80;99.90;;;;;;5017039;28;19959;-81
2021/01/28 11:14:03;;;;;;;;;;;6.80;99.90;;;;;;5017213;28;19929;-82
2021/01/28 11:16:33;;;;;;;;;;;6.90;99.90;;;;;;5017483;28;20282;-81
2021/01/28 11:19:00;;;;;;;;;;;6.90;99.90;;;;;;5017247;28;20417;-81
2021/01/28 11:21:26;;;;;;;;;;;6.90;99.90;;;;;;5017550;28;19925;-81
2021/01/28 11:23:55;;;;;;;;;;;6.90;99.90;;;;;;5016927;28;19930;-80
2021/01/28 11:26:21;;;;;;;;;;;6.90;99.90;;;;;;5017173;28;19968;-80
2021/01/28 11:28:48;;;;;;;;;;;6.90;99.90;;;;;;5018360;28;19925;-82
2021/01/28 11:31:15;;;;;;;;;;;6.90;99.90;;;;;;5019463;28;19925;-75
2021/01/28 11:33:41;;;;;;;;;;;6.90;99.90;;;;;;5020304;28;20024;-83
2021/01/28 11:36:08;;;;;;;;;;;7.00;99.90;;;;;;5020826;28;20265;-83
2021/01/28 11:38:39;;;;;;;;;;;7.00;99.90;;;;;;5018204;28;19975;-83
2021/01/28 11:41:07;;;;;;;;;;;7.10;99.90;;;;;;5017091;28;19926;-81
2021/01/28 11:43:33;;;;;;;;;;;7.10;99.90;;;;;;5016800;28;20003;-83
2021/01/28 11:46:00;;;;;;;;;;;7.10;99.90;;;;;;5016265;28;19937;-85
2021/01/28 11:48:27;;;;;;;;;;;7.10;99.90;;;;;;5016511;28;19925;-83
2021/01/28 11:50:53;;;;;;;;;;;7.10;99.90;;;;;;5016264;28;19925;-84
2021/01/28 11:53:19;;;;;;;;;;;7.10;99.90;;;;;;5016382;28;19983;-85
2021/01/28 11:55:46;;;;;;;;;;;7.20;99.90;;;;;;5015904;28;19937;-84
2021/01/28 11:58:12;;;;;;;;;;;7.20;99.90;;;;;;5015938;28;19929;-84
2021/01/28 12:00:39;;;;;;;;;;;7.20;99.90;;;;;;5016078;28;19936;-84
2021/01/28 12:03:06;;;;;;;;;;;7.20;99.90;;;;;;5015322;28;20019;-83
2021/01/28 12:05:33;;;;;;;;;;;7.30;99.90;;;;;;5015965;28;19933;-83
2021/01/28 12:07:59;;;;;;;;;;;7.30;99.90;;;;;;5015935;28;19965;-85
2021/01/28 12:10:27;;;;;;;;;;;7.30;99.90;;;;;;5016243;28;20230;-83
2021/01/28 12:34:05;;;;;;;;;;;7.50;99.90;;;;;;5077085;23;20422;-89
2021/01/28 12:36:31;;;;;;;;;;;7.60;99.90;;;;;;5016245;28;19925;-89
2021/01/28 12:38:58;;;;;;;;;;;7.70;99.90;;;;;;5015772;28;19926;-88
2021/01/28 12:41:24;;;;;;;;;;;7.70;99.90;;;;;;5015449;28;19951;-90
2021/01/28 12:43:51;;;;;;;;;;;7.80;99.90;;;;;;5015846;28;19926;-89
2021/01/28 12:46:17;;;;;;;;;;;7.90;99.90;;;;;;5015327;28;19936;-90
2021/01/28 12:48:44;;;;;;;;;;;8.00;99.90;;;;;;5015536;28;19926;-90
2021/01/28 12:51:11;;;;;;;;;;;8.00;99.90;;;;;;5015619;28;19926;-91
2021/01/28 12:53:37;;;;;;;;;;;8.00;99.90;;;;;;5015799;28;19937;-89
2021/01/28 12:56:04;;;;;;;;;;;8.00;99.90;;;;;;5015755;28;19978;-90
2021/01/28 12:58:30;;;;;;;;;;;8.00;99.90;;;;;;5015115;28;20274;-90
2021/01/28 13:00:57;;;;;;;;;;;8.00;99.90;;;;;;5015585;28;19929;-90
2021/01/28 13:03:23;;;;;;;;;;;8.00;99.90;;;;;;5015183;28;19926;-90
2021/01/28 13:05:49;;;;;;;;;;;8.00;99.90;;;;;;5015252;28;20342;-91
2021/01/28 13:08:17;;;;;;;;;;;8.00;99.90;;;;;;5015480;28;20262;-90
2021/01/28 13:10:43;;;;;;;;;;;8.00;99.90;;;;;;5015131;28;19925;-91
2021/01/28 13:13:09;;;;;;;;;;;8.00;99.90;;;;;;5015597;28;19925;-90
2021/01/28 13:15:36;;;;;;;;;;;8.00;99.90;;;;;;5019237;28;19926;-90
2021/01/28 13:18:04;;;;;;;;;;;8.00;99.90;;;;;;5019103;28;19936;-90
2021/01/28 13:20:31;;;;;;;;;;;8.00;99.90;;;;;;5019050;28;19972;-86
2021/01/28 13:22:57;;;;;;;;;;;8.10;99.90;;;;;;5018938;28;19929;-86
2021/01/28 13:25:25;;;;;;;;;;;8.10;99.90;;;;;;5019029;28;19925;-85
2021/01/28 13:27:51;;;;;;;;;;;8.10;99.90;;;;;;5019287;28;19936;-91
2021/01/28 13:30:18;;;;;;;;;;;8.10;99.90;;;;;;5018732;28;19979;-90
2021/01/28 13:32:44;;;;;;;;;;;8.10;99.90;;;;;;5018917;28;19925;-91
2021/01/28 13:35:11;;;;;;;;;;;8.10;99.90;;;;;;5018918;28;19930;-90
2021/01/28 13:37:38;;;;;;;;;;;8.10;99.90;;;;;;5018787;28;19936;-90
2021/01/28 13:40:05;;;;;;;;;;;8.10;99.90;;;;;;5018704;28;19925;-90
2021/01/28 13:42:32;;;;;;;;;;;8.10;99.90;;;;;;5018625;28;19947;-90
2021/01/28 13:44:58;;;;;;;;;;;8.20;99.90;;;;;;5018895;28;19925;-90
2021/01/28 13:47:25;;;;;;;;;;;8.20;99.90;;;;;;5019153;28;19949;-89
2021/01/28 13:49:51;;;;;;;;;;;8.20;99.90;;;;;;5018930;28;19926;-90
2021/01/28 13:52:17;;;;;;;;;;;8.20;99.90;;;;;;5018928;28;20033;-89
2021/01/28 13:54:44;;;;;;;;;;;8.10;99.90;;;;;;5018611;28;19925;-90
2021/01/28 13:57:10;;;;;;;;;;;8.10;99.90;;;;;;5018327;28;19933;-90
2021/01/28 13:59:38;;;;;;;;;;;8.10;99.90;;;;;;5017911;28;19926;-89
2021/01/28 14:02:07;;;;;;;;;;;8.10;99.90;;;;;;5019146;28;19925;-91
2021/01/28 14:04:33;;;;;;;;;;;11.90;99.90;;;;;;5018555;28;20038;-91
2021/01/28 14:07:00;;;;;;;;;;;8.30;99.90;;;;;;5018481;28;20001;-90
2021/01/28 14:09:26;;;;;;;;;;;8.30;99.90;;;;;;5018454;28;19933;-90
2021/01/28 14:11:52;;;;;;;;;;;8.30;99.90;;;;;;5018423;28;19925;-91
2021/01/28 14:14:22;;;;;;;;;;;8.40;99.90;;;;;;5018079;28;19925;-90
2021/01/28 14:16:49;;;;;;;;;;;8.50;99.90;;;;;;5018388;28;20357;-91
2021/01/28 14:19:15;;;;;;;;;;;8.50;99.90;;;;;;5018184;28;19936;-90
2021/01/28 14:21:42;;;;;;;;;;;8.50;99.90;;;;;;5017976;28;20453;-91
2021/01/28 14:24:09;;;;;;;;;;;8.50;99.90;;;;;;5016719;28;19925;-91
2021/01/28 14:26:35;;;;;;;;;;;8.40;99.90;;;;;;5017052;28;19971;-91
2021/01/28 14:29:02;;;;;;;;;;;8.40;99.90;;;;;;5017874;28;19935;-91
2021/01/28 14:31:28;;;;;;;;;;;8.40;99.90;;;;;;5016953;28;19925;-92
2021/01/28 14:33:55;;;;;;;;;;;8.30;99.90;;;;;;5017669;28;19933;-91
2021/01/28 14:36:22;;;;;;;;;;;8.30;99.90;;;;;;5017419;28;19948;-91
2021/01/28 14:38:48;;;;;;;;;;;8.30;99.90;;;;;;5018105;28;19926;-91
2021/01/28 14:41:16;;;;;;;;;;;8.30;99.90;;;;;;5016995;28;20257;-91
2021/01/28 14:43:42;;;;;;;;;;;8.40;99.90;;;;;;5017895;28;20024;-89
2021/01/28 14:46:09;;;;;;;;;;;8.40;99.90;;;;;;5017672;28;20008;-90
2021/01/28 14:48:35;;;;;;;;;;;8.40;99.90;;;;;;5017365;28;20347;-91
2021/01/28 14:51:02;;;;;;;;;;;8.40;99.90;;;;;;5017487;28;20265;-92
2021/01/28 14:53:29;;;;;;;;;;;8.30;99.90;;;;;;5022204;28;19933;-90
2021/01/28 14:55:55;;;;;;;;;;;8.30;99.90;;;;;;5023459;28;19925;-90
2021/01/28 14:58:21;;;;;;;;;;;8.30;99.90;;;;;;5017295;28;19932;-88
2021/01/28 15:00:48;;;;;;;;;;;8.40;99.90;;;;;;5017168;28;19929;-89
2021/01/28 15:03:14;;;;;;;;;;;8.40;99.90;;;;;;5017669;28;19925;-90
2021/01/28 15:05:41;;;;;;;;;;;8.40;99.90;;;;;;5017583;28;19925;-91
2021/01/28 15:08:08;;;;;;;;;;;8.40;99.90;;;;;;5017178;28;19925;-91
2021/01/28 15:10:36;;;;;;;;;;;8.40;99.90;;;;;;5017225;28;19936;-90
2021/01/28 15:13:03;;;;;;;;;;;8.40;99.90;;;;;;5017095;28;20016;-90
2021/01/28 15:15:29;;;;;;;;;;;8.40;99.90;;;;;;5017489;28;19984;-91
2021/01/28 15:17:56;;;;;;;;;;;8.40;99.90;;;;;;5017001;28;19932;-90
2021/01/28 15:20:23;;;;;;;;;;;8.40;99.90;;;;;;5016917;28;19936;-90
2021/01/28 15:22:49;;;;;;;;;;;8.40;99.90;;;;;;5016944;28;19929;-90
2021/01/28 15:25:16;;;;;;;;;;;8.50;99.90;;;;;;5016951;28;20274;-91
2021/01/28 15:27:43;;;;;;;;;;;8.40;99.90;;;;;;5016895;28;19944;-89
2021/01/28 15:30:10;;;;;;;;;;;8.40;99.90;;;;;;5016768;28;19925;-90
2021/01/28 15:32:36;;;;;;;;;;;8.40;99.90;;;;;;5016438;28;19936;-91
2021/01/28 15:35:03;;;;;;;;;;;8.30;99.90;;;;;;5016850;28;19926;-90
2021/01/28 15:37:29;;;;;;;;;;;8.30;99.90;;;;;;5015494;28;20012;-91
2021/01/28 15:39:55;;;;;;;;;;;8.40;99.90;;;;;;5016722;28;19936;-90
2021/01/28 15:42:23;;;;;;;;;;;8.30;99.90;;;;;;5016650;28;19925;-90
2021/01/28 15:44:49;;;;;;;;;;;8.30;99.90;;;;;;5016733;28;19926;-90
2021/01/28 15:47:15;;;;;;;;;;;8.30;99.90;;;;;;5016623;28;19936;-89
2021/01/28 15:49:42;;;;;;;;;;;8.30;99.90;;;;;;5016575;28;19953;-90
2021/01/28 15:52:08;;;;;;;;;;;8.30;99.90;;;;;;5016405;28;19936;-89
2021/01/28 15:54:34;;;;;;;;;;;8.30;99.90;;;;;;5016432;28;19925;-89
2021/01/28 15:57:01;;;;;;;;;;;8.30;99.90;;;;;;5016274;28;19925;-89
2021/01/28 15:59:28;;;;;;;;;;;8.20;99.90;;;;;;5016392;28;19930;-90
2021/01/28 16:01:54;;;;;;;;;;;8.30;99.90;;;;;;5016305;28;19925;-90
2021/01/28 16:04:21;;;;;;;;;;;8.20;99.90;;;;;;5016135;28;19984;-90
2021/01/28 16:06:48;;;;;;;;;;;8.20;99.90;;;;;;5016017;28;19929;-90
2021/01/28 16:09:15;;;;;;;;;;;8.20;99.90;;;;;;5015990;28;19933;-90
2021/01/28 16:11:41;;;;;;;;;;;8.20;99.90;;;;;;5015833;28;19930;-89
2021/01/28 16:14:07;;;;;;;;;;;8.20;99.90;;;;;;5015973;28;19936;-89
2021/01/28 16:16:35;;;;;;;;;;;8.20;99.90;;;;;;5015802;28;19926;-90
2021/01/28 16:19:01;;;;;;;;;;;8.20;99.90;;;;;;5015936;28;19936;-90
2021/01/28 16:21:28;;;;;;;;;;;8.20;99.90;;;;;;5010691;28;19929;-88
2021/01/28 16:23:54;;;;;;;;;;;8.20;99.90;;;;;;4996203;28;19926;-90
2021/01/28 16:26:21;;;;;;;;;;;8.20;99.90;;;;;;4996246;28;19979;-90
2021/01/28 16:28:47;;;;;;;;;;;8.20;99.90;;;;;;4996090;28;19932;-89
2021/01/28 16:31:14;;;;;;;;;;;8.20;99.90;;;;;;4996101;28;20251;-89
2021/01/28 16:33:41;;;;;;;;;;;8.10;99.90;;;;;;4995951;28;19925;-90
2021/01/28 16:36:07;;;;;;;;;;;8.10;99.90;;;;;;4996117;28;19941;-90
2021/01/28 16:38:35;;;;;;;;;;;8.10;99.90;;;;;;4996244;28;19925;-90
2021/01/28 16:41:01;;;;;;;;;;;8.20;99.90;;;;;;4996136;28;20259;-90
2021/01/28 16:43:27;;;;;;;;;;;8.10;99.90;;;;;;4995830;28;20235;-89
2021/01/28 16:45:54;;;;;;;;;;;8.10;99.90;;;;;;4995770;28;19926;-80
2021/01/28 16:48:20;;;;;;;;;;;8.10;99.90;;;;;;4995263;28;19926;-79
2021/01/28 16:50:48;;;;;;;;;;;8.10;99.90;;;;;;4995559;28;19940;-79
2021/01/28 16:53:16;;;;;;;;;;;8.10;99.90;;;;;;4995498;28;20270;-79
2021/01/28 16:55:42;;;;;;;;;;;8.00;99.90;;;;;;4995663;28;20359;-90
2021/01/28 16:58:09;;;;;;;;;;;8.00;99.90;;;;;;4995970;28;19929;-89
2021/01/28 17:00:35;;;;;;;;;;;8.00;99.90;;;;;;4995800;28;20029;-89
2021/01/28 17:03:01;;;;;;;;;;;8.00;99.90;;;;;;4996149;28;19926;-89
2021/01/28 17:05:28;;;;;;;;;;;8.00;99.90;;;;;;4995843;28;19956;-89
2021/01/28 17:07:55;;;;;;;;;;;8.00;99.90;;;;;;4995628;28;19926;-89
2021/01/28 17:10:22;;;;;;;;;;;8.00;99.90;;;;;;4995682;28;20374;-90
2021/01/28 17:12:48;;;;;;;;;;;8.00;99.90;;;;;;4995913;28;19930;-89
2021/01/28 17:15:15;;;;;;;;;;;8.00;99.90;;;;;;4995458;28;20016;-90
2021/01/28 17:17:42;;;;;;;;;;;8.00;99.90;;;;;;4995501;28;19926;-89
2021/01/28 17:20:08;;;;;;;;;;;8.00;99.90;;;;;;4995894;28;19930;-89
2021/01/28 17:22:35;;;;;;;;;;;8.00;99.90;;;;;;4995603;28;20020;-89
2021/01/28 17:25:02;;;;;;;;;;;8.00;99.90;;;;;;4995667;28;19925;-89
2021/01/28 17:27:28;;;;;;;;;;;8.00;99.90;;;;;;4995599;28;20261;-88
2021/01/28 17:29:55;;;;;;;;;;;8.00;99.90;;;;;;4995491;28;19925;-89
2021/01/28 17:32:21;;;;;;;;;;;8.00;99.90;;;;;;4995284;28;19925;-89
2021/01/28 17:34:47;;;;;;;;;;;8.00;99.90;;;;;;4995246;28;19936;-89
2021/01/28 17:37:14;;;;;;;;;;;8.00;99.90;;;;;;4995317;28;19925;-89
2021/01/28 17:39:40;;;;;;;;;;;8.10;99.90;;;;;;4995438;28;19936;-89
2021/01/28 17:42:07;;;;;;;;;;;8.10;99.90;;;;;;4995360;28;19933;-89
2021/01/28 17:44:34;;;;;;;;;;;8.10;99.90;;;;;;4995628;28;19926;-89
2021/01/28 17:47:00;;;;;;;;;;;8.10;99.90;;;;;;4995630;28;19926;-89
2021/01/28 17:49:26;;;;;;;;;;;8.10;99.90;;;;;;4995238;28;20331;-89
2021/01/28 17:51:53;;;;;;;;;;;8.20;99.90;;;;;;4995151;28;19925;-89
2021/01/28 17:54:19;;;;;;;;;;;8.10;99.90;;;;;;4995225;28;19925;-88
2021/01/28 17:56:46;;;;;;;;;;;8.20;99.90;;;;;;4995120;28;19950;-89
2021/01/28 17:59:13;;;;;;;;;;;8.10;99.90;;;;;;4995367;28;19961;-89
2021/01/28 18:01:40;;;;;;;;;;;8.10;99.90;;;;;;4996986;28;19926;-89
2021/01/28 18:04:07;;;;;;;;;;;8.10;99.90;;;;;;4998786;28;19925;-89
2021/01/28 18:06:33;;;;;;;;;;;8.20;99.90;;;;;;4999118;28;19985;-89
2021/01/28 18:09:00;;;;;;;;;;;8.20;99.90;;;;;;4998498;28;20347;-88
2021/01/28 18:11:26;;;;;;;;;;;8.20;99.90;;;;;;4998777;28;19926;-89
2021/01/28 18:13:52;;;;;;;;;;;8.20;99.90;;;;;;4998438;28;19936;-89
2021/01/28 18:16:20;;;;;;;;;;;8.20;99.90;;;;;;4998923;28;19926;-89
2021/01/28 18:18:46;;;;;;;;;;;8.20;99.90;;;;;;4998781;28;19929;-88
2021/01/28 18:21:12;;;;;;;;;;;8.20;99.90;;;;;;4998693;28;19933;-89
2021/01/28 18:23:39;;;;;;;;;;;8.20;99.90;;;;;;4998351;28;19926;-89
2021/01/28 18:26:05;;;;;;;;;;;8.20;99.90;;;;;;4998600;28;19948;-89
2021/01/28 18:28:31;;;;;;;;;;;8.20;99.90;;;;;;4998285;28;19972;-88
2021/01/28 18:30:58;;;;;;;;;;;8.20;99.90;;;;;;4998375;28;19984;-87
2021/01/28 18:33:25;;;;;;;;;;;8.20;99.90;;;;;;4998206;28;19969;-88
2021/01/28 18:35:54;;;;;;;;;;;8.20;99.90;;;;;;4997929;28;19933;-88
2021/01/28 18:38:20;;;;;;;;;;;8.20;99.90;;;;;;4998233;28;20250;-88
2021/01/28 18:40:47;;;;;;;;;;;8.30;99.90;;;;;;4997924;28;19930;-89
2021/01/28 18:43:13;;;;;;;;;;;8.20;99.90;;;;;;4997931;28;19936;-89
2021/01/28 18:45:39;;;;;;;;;;;8.20;99.90;;;;;;4997844;28;19976;-89
2021/01/28 18:48:06;;;;;;;;;;;8.20;99.90;;;;;;4997741;28;19926;-89
2021/01/28 18:50:34;;;;;;;;;;;8.20;99.90;;;;;;4997673;28;19941;-90
2021/01/28 18:53:00;;;;;;;;;;;8.20;99.90;;;;;;4998001;28;19933;-89
2021/01/28 18:55:26;;;;;;;;;;;8.20;99.90;;;;;;4996708;28;19936;-89
2021/01/28 18:57:53;;;;;;;;;;;8.20;99.90;;;;;;4997567;28;19926;-88
2021/01/28 19:00:20;;;;;;;;;;;8.30;99.90;;;;;;4997634;28;19992;-88
2021/01/28 19:02:46;;;;;;;;;;;8.20;99.90;;;;;;4997683;28;19930;-89
2021/01/28 19:05:13;;;;;;;;;;;8.30;99.90;;;;;;4997409;28;20009;-89
2021/01/28 19:07:40;;;;;;;;;;;8.30;99.90;;;;;;4997453;28;19979;-88
2021/01/28 19:10:07;;;;;;;;;;;8.30;99.90;;;;;;4997312;28;19926;-89
2021/01/28 19:12:34;;;;;;;;;;;8.20;99.90;;;;;;4997109;28;19926;-89
2021/01/28 19:15:01;;;;;;;;;;;8.20;99.90;;;;;;4997714;28;19925;-89
2021/01/28 19:17:27;;;;;;;;;;;8.20;99.90;;;;;;4997387;28;19925;-89
2021/01/28 19:19:53;;;;;;;;;;;8.20;99.90;;;;;;4997332;28;19936;-89
2021/01/28 19:22:20;;;;;;;;;;;8.20;99.90;;;;;;4997196;28;19926;-89
2021/01/28 19:24:47;;;;;;;;;;;8.30;99.90;;;;;;4997457;28;20279;-89
2021/01/28 19:27:13;;;;;;;;;;;8.30;99.90;;;;;;4997087;28;19926;-89
2021/01/28 19:29:39;;;;;;;;;;;8.20;99.90;;;;;;4997025;28;19926;-89
2021/01/28 19:32:06;;;;;;;;;;;8.30;99.90;;;;;;4997023;28;19926;-88
2021/01/28 19:34:32;;;;;;;;;;;8.30;99.90;;;;;;4995809;28;20294;-90
2021/01/28 19:36:58;;;;;;;;;;;8.30;99.90;;;;;;4996937;28;19930;-90
2021/01/28 19:39:25;;;;;;;;;;;8.20;99.90;;;;;;4997048;28;19980;-87
2021/01/28 19:41:53;;;;;;;;;;;8.20;99.90;;;;;;4997339;28;20308;-90
2021/01/28 19:44:22;;;;;;;;;;;8.30;99.90;;;;;;4997192;28;19926;-90
2021/01/28 19:46:48;;;;;;;;;;;8.30;99.90;;;;;;4997040;28;19987;-89
2021/01/28 19:49:14;;;;;;;;;;;8.30;99.90;;;;;;4996805;28;19925;-89
2021/01/28 19:51:41;;;;;;;;;;;8.30;99.90;;;;;;4996534;28;19933;-89
2021/01/28 19:54:09;;;;;;;;;;;8.40;99.90;;;;;;4997111;28;20011;-90
2021/01/28 19:56:35;;;;;;;;;;;8.40;99.90;;;;;;4996551;28;19936;-90
2021/01/28 19:59:02;;;;;;;;;;;8.40;99.90;;;;;;4996610;28;19972;-90
2021/01/28 20:01:29;;;;;;;;;;;8.40;99.90;;;;;;4996407;28;19930;-90
2021/01/28 20:03:55;;;;;;;;;;;8.40;99.90;;;;;;4996415;28;20413;-89
2021/01/28 20:06:21;;;;;;;;;;;8.50;99.90;;;;;;4996786;28;19952;-89
2021/01/28 20:08:48;;;;;;;;;;;8.40;99.90;;;;;;4996625;28;20024;-90
2021/01/28 20:11:15;;;;;;;;;;;8.50;99.90;;;;;;4996510;28;19987;-90
2021/01/28 20:13:45;;;;;;;;;;;8.40;99.90;;;;;;4996450;28;19936;-90
2021/01/28 20:16:14;;;;;;;;;;;8.40;99.90;;;;;;4996499;28;20037;-90
2021/01/28 20:18:42;;;;;;;;;;;8.40;99.90;;;;;;4996162;28;20267;-90
2021/01/28 20:21:08;;;;;;;;;;;8.40;99.90;;;;;;4996370;28;19929;-90
2021/01/28 20:23:35;;;;;;;;;;;8.40;99.90;;;;;;4995609;28;19926;-89
2021/01/28 20:26:02;;;;;;;;;;;8.40;99.90;;;;;;4996184;28;19936;-90
2021/01/28 20:28:28;;;;;;;;;;;8.40;99.90;;;;;;4995961;28;19961;-90
2021/01/28 20:30:55;;;;;;;;;;;8.40;99.90;;;;;;4995992;28;20321;-90
2021/01/28 20:33:22;;;;;;;;;;;8.40;99.90;;;;;;4995592;28;19929;-90
2021/01/28 20:35:49;;;;;;;;;;;8.40;99.90;;;;;;4995875;28;19991;-90
2021/01/28 20:38:16;;;;;;;;;;;8.40;99.90;;;;;;4996427;28;19926;-90
2021/01/28 20:40:43;;;;;;;;;;;8.40;99.90;;;;;;4996133;28;20025;-90
2021/01/28 20:43:10;;;;;;;;;;;8.50;99.90;;;;;;4995478;28;19938;-89
2021/01/28 20:45:40;;;;;;;;;;;8.50;99.90;;;;;;4995847;28;19926;-89
2021/01/28 20:48:08;;;;;;;;;;;8.50;99.90;;;;;;4995722;28;20594;-89
2021/01/28 20:50:35;;;;;;;;;;;8.50;99.90;;;;;;4995535;28;19933;-89
2021/01/28 20:53:01;;;;;;;;;;;8.50;99.90;;;;;;4995847;28;19925;-90
2021/01/28 20:55:28;;;;;;;;;;;8.50;99.90;;;;;;4995696;28;20369;-88
2021/01/28 20:57:59;;;;;;;;;;;8.60;99.90;;;;;;4995935;28;19936;-88
2021/01/28 21:00:25;;;;;;;;;;;8.80;99.90;;;;;;4995686;28;19926;-89
2021/01/28 21:02:51;;;;;;;;;;;8.50;99.90;;;;;;4995888;28;20269;-87
2021/01/28 21:05:18;;;;;;;;;;;8.50;99.90;;;;;;4995688;28;19934;-87
2021/01/28 21:16:43;;;;;;;;;;;10.30;99.90;;;;;;4995416;28;20506;-90
2021/01/28 21:19:09;;;;;;;;;;;6.50;99.90;;;;;;4995369;28;20373;-87